createdAt,value
2022-12-22T00:02:12.181Z,99669.44
2022-12-22T00:04:33.416Z,99674.78
2022-12-22T00:06:54.665Z,99667.41
2022-12-22T00:09:15.712Z,99664.91
2022-12-22T00:11:36.722Z,99668.22
2022-12-22T00:14:00.747Z,99659.97
2022-12-22T00:16:21.623Z,99665.75
2022-12-22T00:18:42.897Z,99660.16
2022-12-22T00:21:04.259Z,99665.31
2022-12-22T00:23:27.894Z,99656.69
2022-12-22T00:25:49.009Z,99660.78
2022-12-22T00:28:10.494Z,99656.69
2022-12-22T00:30:33.607Z,99664.69
2022-12-22T00:32:56.754Z,99662.03
2022-12-22T00:35:18.758Z,99651.72
2022-12-22T00:37:39.840Z,99648.03
2022-12-22T00:40:01.668Z,99645.56
2022-12-22T00:42:24.515Z,99643.50
2022-12-22T00:44:45.532Z,99634.25
2022-12-22T00:47:06.910Z,99640.22
2022-12-22T00:49:27.873Z,99633.44
2022-12-22T00:51:50.096Z,99640.25
2022-12-22T00:54:10.949Z,99641.69
2022-12-22T00:56:32.203Z,99645.38
2022-12-22T00:58:54.296Z,99639.44
2022-12-22T01:01:15.665Z,99635.31
2022-12-22T01:03:37.133Z,99639.22
2022-12-22T01:05:58.160Z,99624.00
2022-12-22T01:08:19.833Z,99629.13
2022-12-22T01:10:43.653Z,99624.22
2022-12-22T01:13:05.192Z,99621.72
2022-12-22T01:15:46.548Z,99614.72
2022-12-22T01:18:07.737Z,99610.81
2022-12-22T01:20:29.442Z,99610.81
2022-12-22T01:22:50.812Z,99588.78
2022-12-22T01:25:12.013Z,99583.63
2022-12-22T01:27:35.378Z,99612.03
2022-12-22T01:29:56.565Z,99608.53
2022-12-22T01:32:18.013Z,99608.94
2022-12-22T01:34:39.156Z,99597.41
2022-12-22T01:37:00.291Z,99604.41
2022-12-22T01:39:22.184Z,99597.41
2022-12-22T01:41:43.803Z,99590.00
2022-12-22T01:44:05.302Z,99580.53
2022-12-22T01:46:42.883Z,99586.28
2022-12-22T01:49:04.253Z,99563.47
2022-12-22T01:51:30.442Z,99563.03
2022-12-22T01:53:52.262Z,99545.78
2022-12-22T01:56:13.694Z,99548.63
2022-12-22T01:58:49.145Z,99554.59
2022-12-22T02:01:10.262Z,99541.03
2022-12-22T02:03:39.357Z,99537.31
2022-12-22T02:06:16.372Z,99551.06
2022-12-22T02:08:47.542Z,99547.38
2022-12-22T02:11:38.814Z,99539.53
2022-12-22T02:14:41.957Z,99526.19
2022-12-22T02:17:21.525Z,99521.44
2022-12-22T02:19:51.752Z,99529.06
2022-12-22T02:22:34.392Z,99512.19
2022-12-22T02:25:00.608Z,99509.94
2022-12-22T02:27:21.411Z,99502.31
2022-12-22T02:29:52.672Z,99507.00
2022-12-22T02:32:14.189Z,99487.91
2022-12-22T02:34:35.377Z,99502.28
2022-12-22T02:37:17.716Z,99492.81
2022-12-22T02:39:50.028Z,99481.13
2022-12-22T02:42:10.857Z,99480.06
2022-12-22T02:44:57.061Z,99471.00
2022-12-22T02:47:34.095Z,99486.03
2022-12-22T02:50:06.450Z,99490.75
2022-12-22T02:52:39.176Z,99475.53
2022-12-22T02:55:00.550Z,99463.22
2022-12-22T02:57:28.059Z,99460.94
2022-12-22T02:59:49.048Z,99461.34
2022-12-22T03:02:10.351Z,99459.88
2022-12-22T03:04:31.849Z,99451.91
2022-12-22T03:06:53.037Z,99448.56
2022-12-22T03:09:14.221Z,99456.16
2022-12-22T03:11:35.542Z,99458.66
2022-12-22T03:13:56.522Z,99449.22
2022-12-22T03:16:17.594Z,99459.72
2022-12-22T03:18:38.536Z,99454.94
2022-12-22T03:20:59.461Z,99453.94
2022-12-22T03:23:25.745Z,99462.94
2022-12-22T03:25:46.828Z,99466.00
2022-12-22T03:27:49.487Z,99449.97
2022-12-22T03:29:52.118Z,99459.00
2022-12-22T03:31:54.726Z,99456.50
2022-12-22T03:33:57.389Z,99455.66
2022-12-22T03:36:01.919Z,99444.53
2022-12-22T03:38:04.603Z,99441.44
2022-12-22T03:40:08.055Z,99433.59
2022-12-22T03:42:32.229Z,99436.72
2022-12-22T03:44:53.390Z,99437.94
2022-12-22T03:46:56.068Z,99422.50
2022-12-22T03:49:12.858Z,99430.72
2022-12-22T03:51:15.827Z,99422.50
2022-12-22T03:53:18.725Z,99424.13
2022-12-22T03:55:21.306Z,99408.06
2022-12-22T03:57:25.740Z,99412.16
2022-12-22T03:59:28.767Z,99404.53
2022-12-22T04:01:33.801Z,99400.19
2022-12-22T04:03:36.506Z,99412.72
2022-12-22T04:05:39.050Z,99417.66
2022-12-22T04:07:41.768Z,99401.59
2022-12-22T04:10:04.290Z,99409.63
2022-12-22T04:12:27.092Z,99395.25
2022-12-22T04:14:33.982Z,99392.94
2022-12-22T04:16:37.421Z,99388.03
2022-12-22T04:18:40.040Z,99392.50
2022-12-22T04:20:42.631Z,99382.63
2022-12-22T04:22:45.556Z,99378.09
2022-12-22T04:24:48.149Z,99375.59
2022-12-22T04:26:51.258Z,99378.69
2022-12-22T04:28:54.439Z,99373.94
2022-12-22T04:30:57.133Z,99378.91
2022-12-22T04:32:59.771Z,99370.66
2022-12-22T04:35:02.375Z,99371.88
2022-12-22T04:37:14.925Z,99361.72
2022-12-22T04:39:19.217Z,99350.81
2022-12-22T04:41:21.956Z,99347.47
2022-12-22T04:43:24.541Z,99345.84
2022-12-22T04:45:27.229Z,99352.16
2022-12-22T04:47:29.929Z,99341.25
2022-12-22T04:49:32.606Z,99341.66
2022-12-22T04:51:35.185Z,99354.03
2022-12-22T04:53:37.832Z,99342.50
2022-12-22T04:55:46.407Z,99331.19
2022-12-22T04:57:49.067Z,99324.56
2022-12-22T04:59:51.621Z,99327.84
2022-12-22T05:01:54.214Z,99328.88
2022-12-22T05:03:56.875Z,99325.53
2022-12-22T05:05:59.451Z,99312.16
2022-12-22T05:08:02.788Z,99315.22
2022-12-22T05:10:05.832Z,99318.84
2022-12-22T05:12:27.072Z,99306.28
2022-12-22T05:14:29.786Z,99312.81
2022-12-22T05:16:32.427Z,99299.50
2022-12-22T05:18:35.760Z,99303.97
2022-12-22T05:20:38.428Z,99290.81
2022-12-22T05:22:41.019Z,99296.91
2022-12-22T05:24:43.612Z,99298.56
2022-12-22T05:26:46.366Z,99294.09
2022-12-22T05:28:49.137Z,99290.94
2022-12-22T05:30:53.595Z,99295.06
2022-12-22T05:32:56.228Z,99282.91
2022-12-22T05:34:58.819Z,99285.97
2022-12-22T05:37:01.425Z,99283.91
2022-12-22T05:39:04.115Z,99270.50
2022-12-22T05:41:07.908Z,99271.03
2022-12-22T05:43:10.591Z,99285.16
2022-12-22T05:45:16.927Z,99279.22
2022-12-22T05:47:19.453Z,99255.31
2022-12-22T05:49:22.059Z,99258.00
2022-12-22T05:51:24.766Z,99258.38
2022-12-22T05:53:28.044Z,99253.03
2022-12-22T05:55:30.665Z,99251.38
2022-12-22T05:57:33.656Z,99233.69
2022-12-22T05:59:36.304Z,99244.41
2022-12-22T06:01:39.021Z,99238.81
2022-12-22T06:03:41.856Z,99244.41
2022-12-22T06:05:44.613Z,99235.56
2022-12-22T06:07:47.844Z,99235.31
2022-12-22T06:09:50.453Z,99226.25
2022-12-22T06:11:53.018Z,99217.41
2022-12-22T06:13:55.643Z,99208.31
2022-12-22T06:15:58.343Z,99228.59
2022-12-22T06:18:01.003Z,99223.25
2022-12-22T06:20:04.881Z,99216.00
2022-12-22T06:22:07.727Z,99227.69
2022-12-22T06:24:10.560Z,99225.97
2022-12-22T06:26:13.207Z,99211.88
2022-12-22T06:28:16.006Z,99210.34
2022-12-22T06:30:18.905Z,99204.19
2022-12-22T06:32:21.665Z,99205.81
2022-12-22T06:34:24.563Z,99199.25
2022-12-22T06:36:27.151Z,99203.34
2022-12-22T06:38:29.771Z,99199.03
2022-12-22T06:40:32.503Z,99196.59
2022-12-22T06:42:53.901Z,99193.47
2022-12-22T06:44:56.458Z,99173.88
2022-12-22T06:46:59.194Z,99183.91
2022-12-22T06:49:02.344Z,99171.44
2022-12-22T06:51:04.981Z,99169.34
2022-12-22T06:53:08.110Z,99165.41
2022-12-22T06:55:10.854Z,99157.13
2022-12-22T06:57:13.459Z,99156.31
2022-12-22T06:59:16.405Z,99154.44
2022-12-22T07:01:19.184Z,99154.00
2022-12-22T07:03:21.888Z,99150.03
2022-12-22T07:05:24.886Z,99145.72
2022-12-22T07:07:27.874Z,99149.66
2022-12-22T07:09:30.500Z,99137.69
2022-12-22T07:11:33.104Z,99135.00
2022-12-22T07:13:36.039Z,99139.06
2022-12-22T07:15:38.646Z,99117.78
2022-12-22T07:17:41.926Z,99121.06
2022-12-22T07:19:44.889Z,99118.22
2022-12-22T07:21:49.133Z,99116.72
2022-12-22T07:23:51.785Z,99107.88
2022-12-22T07:25:54.771Z,99101.59
2022-12-22T07:27:57.275Z,99086.78
2022-12-22T07:30:00.230Z,99095.41
2022-12-22T07:32:03.652Z,99108.81
2022-12-22T07:34:06.322Z,99095.28
2022-12-22T07:36:13.176Z,99089.13
2022-12-22T07:38:15.845Z,99093.31
2022-12-22T07:40:18.402Z,99088.31
2022-12-22T07:42:39.624Z,99073.16
2022-12-22T07:44:42.287Z,99079.34
2022-12-22T07:46:44.945Z,99064.78
2022-12-22T07:49:07.078Z,99066.88
2022-12-22T07:51:09.701Z,99059.06
2022-12-22T07:53:12.382Z,99053.22
2022-12-22T07:55:15.052Z,99052.91
2022-12-22T07:57:17.999Z,99051.50
2022-12-22T07:59:20.660Z,99048.56
2022-12-22T08:01:24.040Z,99054.78
2022-12-22T08:03:27.744Z,99053.22
2022-12-22T08:05:30.381Z,99042.28
2022-12-22T08:07:33.162Z,99036.34
2022-12-22T08:09:36.437Z,99044.75
2022-12-22T08:11:39.083Z,99015.25
2022-12-22T08:13:43.640Z,99016.88
2022-12-22T08:15:46.388Z,99013.28
2022-12-22T08:17:49.066Z,99008.13
2022-12-22T08:19:51.707Z,99004.75
2022-12-22T08:21:54.325Z,98991.00
2022-12-22T08:23:57.047Z,98996.59
2022-12-22T08:26:11.844Z,98987.38
2022-12-22T08:28:17.416Z,98989.25
2022-12-22T08:30:21.052Z,98976.88
2022-12-22T08:32:27.345Z,98984.38
2022-12-22T08:34:31.628Z,98965.44
2022-12-22T08:36:38.315Z,98974.34
2022-12-22T08:38:43.075Z,98959.53
2022-12-22T08:40:46.223Z,98955.66
2022-12-22T08:42:52.949Z,98960.66
2022-12-22T08:44:56.319Z,98944.84
2022-12-22T08:46:59.964Z,98942.72
2022-12-22T08:49:02.833Z,98943.28
2022-12-22T08:51:05.833Z,98928.75
2022-12-22T08:53:29.729Z,98926.88
2022-12-22T08:55:33.033Z,98907.50
2022-12-22T08:57:35.981Z,98911.97
2022-12-22T08:59:38.620Z,98908.31
2022-12-22T09:01:44.760Z,98911.00
2022-12-22T09:03:52.428Z,98906.44
2022-12-22T09:06:03.959Z,98904.91
2022-12-22T09:08:06.584Z,98906.06
2022-12-22T09:10:10.112Z,98897.09
2022-12-22T09:12:12.784Z,98886.72
2022-12-22T09:14:15.552Z,98886.81
2022-12-22T09:16:18.189Z,98889.25
2022-12-22T09:18:20.881Z,98869.91
2022-12-22T09:20:23.484Z,98870.81
2022-12-22T09:22:28.469Z,98870.56
2022-12-22T09:24:31.735Z,98864.97
2022-12-22T09:26:36.569Z,98860.19
2022-12-22T09:28:42.599Z,98842.94
2022-12-22T09:30:53.806Z,98854.34
2022-12-22T09:32:56.454Z,98847.00
2022-12-22T09:34:59.017Z,98846.22
2022-12-22T09:37:01.667Z,98845.72
2022-12-22T09:39:06.254Z,98856.34
2022-12-22T09:41:35.443Z,98839.78
2022-12-22T09:43:38.143Z,98834.31
2022-12-22T09:45:41.356Z,98819.84
2022-12-22T09:47:45.555Z,98822.53
2022-12-22T09:49:48.729Z,98816.13
2022-12-22T09:51:56.833Z,98814.81
2022-12-22T09:54:00.859Z,98806.44
2022-12-22T09:56:03.556Z,98797.09
2022-12-22T09:58:24.060Z,98806.22
2022-12-22T10:00:30.999Z,98797.81
2022-12-22T10:02:48.012Z,98796.28
2022-12-22T10:04:59.265Z,98789.88
2022-12-22T10:07:07.633Z,98782.31
2022-12-22T10:11:59.919Z,98783.94
2022-12-22T10:14:02.828Z,98776.69
2022-12-22T10:16:41.056Z,98785.41
2022-12-22T10:19:10.622Z,98775.63
2022-12-22T10:21:15.763Z,98782.06
2022-12-22T10:23:26.776Z,98779.97
2022-12-22T10:26:25.970Z,98764.19
2022-12-22T10:28:17.303Z,98761.03
2022-12-22T10:30:28.945Z,98753.22
2022-12-22T10:32:31.694Z,98746.88
2022-12-22T10:34:34.449Z,98752.56
2022-12-22T10:36:38.292Z,98739.31
2022-12-22T10:39:05.507Z,98738.72
2022-12-22T10:41:21.672Z,98734.78
2022-12-22T10:43:28.438Z,98737.19
2022-12-22T10:45:31.274Z,98730.28
2022-12-22T10:47:36.046Z,98733.69
2022-12-22T10:51:49.804Z,98720.53
2022-12-22T10:53:56.794Z,98713.53
2022-12-22T10:56:06.834Z,98697.69
2022-12-22T10:58:15.980Z,98721.59
2022-12-22T11:00:23.445Z,98694.78
2022-12-22T11:02:31.257Z,98697.63
2022-12-22T11:04:33.966Z,98699.50
2022-12-22T11:06:36.700Z,98694.44
2022-12-22T11:08:39.450Z,98691.69
2022-12-22T11:10:50.950Z,98690.13
2022-12-22T11:13:19.533Z,98693.63
2022-12-22T11:15:52.071Z,98691.13
2022-12-22T11:18:04.016Z,98677.69
2022-12-22T11:20:47.483Z,98679.56
2022-12-22T11:23:14.637Z,98680.88
2022-12-22T11:25:36.838Z,98672.84
2022-12-22T11:28:04.334Z,98661.38
2022-12-22T11:30:22.236Z,98662.97
2022-12-22T11:32:45.589Z,98666.50
2022-12-22T11:35:25.586Z,98665.44
2022-12-22T11:37:56.602Z,98653.41
2022-12-22T11:40:02.062Z,98656.88
2022-12-22T11:42:23.873Z,98649.34
2022-12-22T11:44:40.198Z,98648.84
2022-12-22T11:47:09.157Z,98645.91
2022-12-22T11:49:11.870Z,98635.53
2022-12-22T11:51:28.097Z,98641.88
2022-12-22T11:53:37.732Z,98641.94
2022-12-22T11:55:45.350Z,98633.13
2022-12-22T11:58:06.411Z,98631.25
2022-12-22T12:00:09.487Z,98638.28
2022-12-22T12:02:49.757Z,98633.94
2022-12-22T12:05:20.439Z,98632.41
2022-12-22T12:07:28.382Z,98619.00
2022-12-22T12:09:46.625Z,98608.00
2022-12-22T12:12:24.925Z,98615.31
2022-12-22T12:15:01.020Z,98609.13
2022-12-22T12:17:08.964Z,98613.38
2022-12-22T12:19:44.380Z,98611.56
2022-12-22T12:22:03.581Z,98625.53
2022-12-22T12:24:11.947Z,98611.16
2022-12-22T12:27:03.395Z,98612.47
2022-12-22T12:29:24.482Z,98600.94
2022-12-22T12:31:33.531Z,98598.03
2022-12-22T12:33:42.875Z,98603.41
2022-12-22T12:36:16.387Z,98592.91
2022-12-22T12:39:09.376Z,98579.00
2022-12-22T12:41:21.442Z,98586.50
2022-12-22T12:43:24.617Z,98583.81
2022-12-22T12:45:42.666Z,98598.34
2022-12-22T12:47:46.779Z,98588.47
2022-12-22T12:49:53.299Z,98585.28
2022-12-22T12:51:56.011Z,98585.84
2022-12-22T12:54:23.602Z,98584.81
2022-12-22T12:57:08.929Z,98564.94
2022-12-22T12:59:44.031Z,98570.31
2022-12-22T13:01:57.597Z,98564.13
2022-12-22T13:04:03.734Z,98585.97
2022-12-22T13:06:31.163Z,98584.59
2022-12-22T13:09:22.283Z,98566.66
2022-12-22T13:11:52.183Z,98560.50
2022-12-22T13:13:47.133Z,98561.59
2022-12-22T13:15:50.890Z,98549.28
2022-12-22T13:17:53.735Z,98556.31
2022-12-22T13:19:56.708Z,98561.72
2022-12-22T13:22:02.986Z,98559.28
2022-12-22T13:24:28.693Z,98571.38
2022-12-22T13:26:35.809Z,98568.75
2022-12-22T13:28:42.295Z,98557.50
2022-12-22T13:30:57.007Z,98564.50
2022-12-22T13:33:02.471Z,98567.22
2022-12-22T13:35:31.510Z,98569.09
2022-12-22T13:37:42.574Z,98573.94
2022-12-22T13:40:07.273Z,98567.53
2022-12-22T13:42:13.305Z,98565.97
2022-12-22T13:44:20.774Z,98570.81
2022-12-22T13:46:23.719Z,98563.88
2022-12-22T13:48:43.664Z,98562.81
2022-12-22T13:50:51.457Z,98544.19
2022-12-22T13:52:56.351Z,98548.28
2022-12-22T13:55:00.736Z,98551.53
2022-12-22T13:57:12.023Z,98556.41
2022-12-22T13:59:28.985Z,98547.03
2022-12-22T14:01:31.956Z,98551.31
2022-12-22T14:03:59.093Z,98548.94
2022-12-22T14:05:57.402Z,98556.47
2022-12-22T14:08:01.163Z,98559.94
2022-12-22T14:10:04.416Z,98561.88
2022-12-22T14:12:14.269Z,98549.19
2022-12-22T14:14:20.446Z,98550.34
2022-12-22T14:16:23.643Z,98547.94
2022-12-22T14:18:27.114Z,98552.28
2022-12-22T14:20:32.784Z,98548.56
2022-12-22T14:22:38.321Z,98552.34
2022-12-22T14:24:54.667Z,98538.88
2022-12-22T14:26:57.682Z,98540.22
2022-12-22T14:29:00.488Z,98548.06
2022-12-22T14:31:06.052Z,98538.09
2022-12-22T14:33:22.416Z,98548.31
2022-12-22T14:35:31.754Z,98547.25
2022-12-22T14:37:34.648Z,98545.38
2022-12-22T14:39:37.433Z,98555.06
2022-12-22T14:41:52.031Z,98547.81
2022-12-22T14:43:54.750Z,98542.44
2022-12-22T14:46:07.513Z,98552.41
2022-12-22T14:48:17.328Z,98543.53
2022-12-22T14:50:22.973Z,98547.84
2022-12-22T14:52:43.798Z,98537.91
2022-12-22T14:54:48.566Z,98543.03
2022-12-22T14:56:54.430Z,98544.38
2022-12-22T14:59:24.087Z,98537.13
2022-12-22T15:01:28.844Z,98543.03
2022-12-22T15:03:36.069Z,98538.19
2022-12-22T15:05:39.333Z,98536.59
2022-12-22T15:08:08.466Z,98535.25
2022-12-22T15:10:15.644Z,98537.44
2022-12-22T15:12:19.595Z,98540.94
2022-12-22T15:14:34.959Z,98532.91
2022-12-22T15:16:41.338Z,98526.94
2022-12-22T15:18:44.602Z,98528.63
2022-12-22T15:20:47.284Z,98525.16
2022-12-22T15:22:50.500Z,98522.19
2022-12-22T15:24:53.135Z,98521.41
2022-12-22T15:26:56.570Z,98517.34
2022-12-22T15:28:59.082Z,98517.94
2022-12-22T15:31:03.076Z,98515.53
2022-12-22T15:33:12.557Z,98509.63
2022-12-22T15:35:29.580Z,98515.00
2022-12-22T15:37:32.494Z,98519.03
2022-12-22T15:39:35.088Z,98511.28
2022-12-22T15:41:37.854Z,98521.50
2022-12-22T15:43:58.364Z,98520.44
2022-12-22T15:46:02.762Z,98517.22
2022-12-22T15:48:10.412Z,98519.38
2022-12-22T15:50:19.984Z,98520.19
2022-12-22T15:52:22.769Z,98514.00
2022-12-22T15:54:28.149Z,98524.00
2022-12-22T15:56:33.777Z,98522.66
2022-12-22T15:58:36.787Z,98524.28
2022-12-22T16:00:39.778Z,98516.47
2022-12-22T16:02:43.608Z,98525.66
2022-12-22T16:04:46.478Z,98523.50
2022-12-22T16:06:50.912Z,98518.41
2022-12-22T16:08:54.623Z,98514.63
2022-12-22T16:10:57.460Z,98514.63
2022-12-22T16:13:03.147Z,98522.16
2022-12-22T16:15:06.306Z,98513.53
2022-12-22T16:17:19.330Z,98509.50
2022-12-22T16:19:22.158Z,98517.88
2022-12-22T16:21:31.545Z,98515.47
2022-12-22T16:23:36.469Z,98509.56
2022-12-22T16:25:39.532Z,98509.56
2022-12-22T16:27:42.277Z,98508.19
2022-12-22T16:29:50.340Z,98512.50
2022-12-22T16:31:53.895Z,98514.38
2022-12-22T16:33:56.544Z,98510.91
2022-12-22T16:35:59.137Z,98514.41
2022-12-22T16:38:01.795Z,98516.59
2022-12-22T16:40:08.128Z,98522.22
2022-12-22T16:44:36.648Z,98507.41
2022-12-22T16:46:39.481Z,98508.78
2022-12-22T16:48:59.055Z,98504.19
2022-12-22T16:51:02.211Z,98505.00
2022-12-22T16:53:06.042Z,98506.09
2022-12-22T16:55:16.847Z,98505.53
2022-12-22T16:57:19.492Z,98513.09
2022-12-22T16:59:22.965Z,98505.84
2022-12-22T17:01:41.801Z,98509.31
2022-12-22T17:03:44.536Z,98515.81
2022-12-22T17:05:51.961Z,98515.25
2022-12-22T17:07:56.552Z,98513.34
2022-12-22T17:10:02.139Z,98509.59
2022-12-22T17:12:07.508Z,98514.44
2022-12-22T17:14:33.225Z,98517.97
2022-12-22T17:16:36.153Z,98515.81
2022-12-22T17:18:38.882Z,98527.09
2022-12-22T17:20:41.534Z,98515.78
2022-12-22T17:22:48.470Z,98529.28
2022-12-22T17:24:52.933Z,98518.75
2022-12-22T17:27:01.297Z,98534.41
2022-12-22T17:29:04.525Z,98515.53
2022-12-22T17:31:07.312Z,98518.22
2022-12-22T17:33:17.301Z,98513.88
2022-12-22T17:35:23.831Z,98533.31
2022-12-22T17:37:26.724Z,98522.25
2022-12-22T17:39:29.400Z,98527.34
2022-12-22T17:41:32.850Z,98528.97
2022-12-22T17:43:35.465Z,98520.09
2022-12-22T17:45:38.048Z,98523.03
2022-12-22T17:47:43.025Z,98531.66
2022-12-22T17:49:45.903Z,98525.72
2022-12-22T17:51:49.008Z,98534.34
2022-12-22T17:53:52.804Z,98536.00
2022-12-22T17:56:10.665Z,98532.19
2022-12-22T17:58:15.722Z,98533.00
2022-12-22T18:00:21.741Z,98525.75
2022-12-22T18:02:25.997Z,98543.53
2022-12-22T18:04:28.726Z,98541.63
2022-12-22T18:06:34.939Z,98530.56
2022-12-22T18:08:37.561Z,98543.53
2022-12-22T18:10:40.587Z,98544.34
2022-12-22T18:12:44.553Z,98540.28
2022-12-22T18:14:48.221Z,98552.69
2022-12-22T18:16:50.932Z,98539.22
2022-12-22T18:18:53.681Z,98540.56
2022-12-22T18:21:07.093Z,98542.16
2022-12-22T18:23:22.560Z,98546.75
2022-12-22T18:25:28.441Z,98548.38
2022-12-22T18:27:31.328Z,98547.28
2022-12-22T18:29:34.425Z,98534.34
2022-12-22T18:31:37.138Z,98540.28
2022-12-22T18:33:39.761Z,98540.28
2022-12-22T18:35:43.603Z,98552.41
2022-12-22T18:37:47.014Z,98547.00
2022-12-22T18:39:49.673Z,98549.41
2022-12-22T18:41:54.429Z,98558.59
2022-12-22T18:43:57.102Z,98559.16
2022-12-22T18:45:59.789Z,98561.31
2022-12-22T18:48:02.442Z,98566.72
2022-12-22T18:50:05.693Z,98569.94
2022-12-22T18:52:18.687Z,98569.41
2022-12-22T18:54:33.593Z,98576.16
2022-12-22T18:56:36.158Z,98553.78
2022-12-22T18:58:39.264Z,98568.59
2022-12-22T19:00:42.645Z,98575.88
2022-12-22T19:02:47.266Z,98573.72
2022-12-22T19:04:50.733Z,98569.94
2022-12-22T19:06:53.345Z,98573.44
2022-12-22T19:08:55.913Z,98573.44
2022-12-22T19:11:03.335Z,98588.81
2022-12-22T19:13:08.584Z,98588.56
2022-12-22T19:15:23.066Z,98583.69
2022-12-22T19:17:28.874Z,98594.75
2022-12-22T19:19:31.726Z,98592.06
2022-12-22T19:21:34.587Z,98605.28
2022-12-22T19:23:37.225Z,98603.09
2022-12-22T19:25:41.132Z,98598.25
2022-12-22T19:27:45.283Z,98595.84
2022-12-22T19:29:48.461Z,98600.16
2022-12-22T19:31:51.247Z,98600.94
2022-12-22T19:33:56.261Z,98613.09
2022-12-22T19:35:59.236Z,98610.38
2022-12-22T19:38:02.914Z,98602.28
2022-12-22T19:40:06.259Z,98607.19
2022-12-22T19:42:15.631Z,98611.72
2022-12-22T19:44:22.289Z,98617.66
2022-12-22T19:46:28.892Z,98614.16
2022-12-22T19:48:31.606Z,98615.81
2022-12-22T19:50:34.268Z,98613.59
2022-12-22T19:52:36.834Z,98622.53
2022-12-22T19:54:39.555Z,98610.91
2022-12-22T19:56:46.502Z,98620.66
2022-12-22T19:58:49.276Z,98617.38
2022-12-22T20:00:53.325Z,98612.53
2022-12-22T20:02:57.616Z,98618.72
2022-12-22T20:05:01.046Z,98617.66
2022-12-22T20:07:06.098Z,98618.22
2022-12-22T20:09:08.808Z,98623.59
2022-12-22T20:11:17.110Z,98617.66
2022-12-22T20:13:23.842Z,98615.22
2022-12-22T20:15:38.239Z,98616.84
2022-12-22T20:17:40.876Z,98627.66
2022-12-22T20:19:43.505Z,98623.84
2022-12-22T20:21:46.387Z,98619.25
2022-12-22T20:23:50.591Z,98624.38
2022-12-22T20:25:57.166Z,98627.63
2022-12-22T20:27:59.984Z,98629.22
2022-12-22T20:30:02.963Z,98636.53
2022-12-22T20:32:06.512Z,98634.38
2022-12-22T20:34:09.190Z,98637.06
2022-12-22T20:36:17.819Z,98633.28
2022-12-22T20:38:23.742Z,98646.50
2022-12-22T20:40:32.143Z,98641.13
2022-12-22T20:42:34.782Z,98641.91
2022-12-22T20:44:37.328Z,98632.22
2022-12-22T20:46:40.523Z,98638.94
2022-12-22T20:48:47.348Z,98632.75
2022-12-22T20:50:50.104Z,98629.75
2022-12-22T20:52:53.907Z,98643.00
2022-12-22T20:54:56.532Z,98632.22
2022-12-22T20:56:59.299Z,98633.00
2022-12-22T20:59:25.572Z,98631.38
2022-12-22T21:01:28.768Z,98620.84
2022-12-22T21:03:34.601Z,98616.25
2022-12-22T21:05:37.319Z,98623.81
2022-12-22T21:07:41.719Z,98630.03
2022-12-22T21:09:44.490Z,98624.66
2022-12-22T21:11:47.419Z,98634.34
2022-12-22T21:13:50.523Z,98633.28
2022-12-22T21:15:53.223Z,98636.78
2022-12-22T21:17:58.377Z,98626.53
2022-12-22T21:20:01.564Z,98641.09
2022-12-22T21:22:06.360Z,98636.78
2022-12-22T21:24:09.032Z,98641.09
2022-12-22T21:26:37.292Z,98636.25
2022-12-22T21:28:40.291Z,98643.00
2022-12-22T21:30:43.046Z,98644.06
2022-12-22T21:32:46.313Z,98654.06
2022-12-22T21:34:48.962Z,98656.75
2022-12-22T21:37:00.084Z,98650.31
2022-12-22T21:39:07.786Z,98656.22
2022-12-22T21:41:10.306Z,98650.81
2022-12-22T21:43:16.403Z,98657.06
2022-12-22T21:45:26.227Z,98651.34
2022-12-22T21:47:28.789Z,98669.19
2022-12-22T21:49:33.211Z,98656.75
2022-12-22T21:51:35.990Z,98661.09
2022-12-22T21:53:38.516Z,98662.44
2022-12-22T21:55:41.637Z,98659.75
2022-12-22T21:57:44.207Z,98668.66
2022-12-22T21:59:46.813Z,98658.63
2022-12-22T22:01:52.691Z,98663.25
2022-12-22T22:03:55.608Z,98675.16
2022-12-22T22:05:58.231Z,98663.78
2022-12-22T22:08:02.836Z,98661.91
2022-12-22T22:10:05.989Z,98663.25
2022-12-22T22:12:28.485Z,98663.50
2022-12-22T22:14:31.339Z,98655.69
2022-12-22T22:16:33.977Z,98668.91
2022-12-22T22:18:36.642Z,98675.66
2022-12-22T22:20:41.813Z,98670.56
2022-12-22T22:22:45.624Z,98674.59
2022-12-22T22:24:48.210Z,98678.66
2022-12-22T22:26:51.868Z,98682.16
2022-12-22T22:28:54.683Z,98676.50
2022-12-22T22:30:57.611Z,98680.00
2022-12-22T22:33:00.240Z,98687.00
2022-12-22T22:35:03.221Z,98691.88
2022-12-22T22:37:06.331Z,98705.41
2022-12-22T22:39:09.394Z,98698.09
2022-12-22T22:41:12.006Z,98706.19
2022-12-22T22:43:14.945Z,98707.53
2022-12-22T22:45:24.373Z,98701.03
2022-12-22T22:47:27.415Z,98709.69
2022-12-22T22:49:30.091Z,98708.63
2022-12-22T22:51:32.727Z,98712.94
2022-12-22T22:53:35.555Z,98713.72
2022-12-22T22:55:38.154Z,98711.84
2022-12-22T22:57:42.222Z,98718.31
2022-12-22T22:59:44.842Z,98717.22
2022-12-22T23:01:47.490Z,98710.50
2022-12-22T23:03:50.174Z,98715.38
2022-12-22T23:06:01.394Z,98712.94
2022-12-22T23:08:04.220Z,98715.63
2022-12-22T23:10:07.477Z,98712.13
2022-12-22T23:12:10.155Z,98725.63
2022-12-22T23:14:12.783Z,98717.22
2022-12-22T23:16:15.524Z,98712.66
2022-12-22T23:18:18.163Z,98708.06
2022-12-22T23:20:20.679Z,98705.09
2022-12-22T23:22:23.635Z,98709.41
2022-12-22T23:24:26.345Z,98707.25
2022-12-22T23:26:29.008Z,98719.13
2022-12-22T23:28:31.889Z,98721.00
2022-12-22T23:30:38.065Z,98726.41
2022-12-22T23:32:40.818Z,98726.72
2022-12-22T23:34:43.460Z,98726.97
2022-12-22T23:36:46.125Z,98720.47
2022-12-22T23:38:49.986Z,98722.63
2022-12-22T23:40:54.321Z,98736.16
2022-12-22T23:42:57.487Z,98728.34
2022-12-22T23:45:00.026Z,98736.16
2022-12-22T23:47:02.616Z,98739.94
2022-12-22T23:49:05.558Z,98740.47
2022-12-22T23:51:10.519Z,98742.09
2022-12-22T23:53:13.321Z,98743.72
2022-12-22T23:55:15.996Z,98752.63
2022-12-22T23:57:18.612Z,98750.72
2022-12-22T23:59:21.255Z,98758.84
